LIPZ/VCE METAR and TAF weather

Enter ICAO airport designator
Station Type Date Time Source
LIPZ METAR 2019/10/23 02:20 UTC NOAA

LIPZ 230220Z 35002KT 0700 R04R/P1500N FG NSC 14/14 Q1020 BECMG 0200 FG


Station Type Date Time Source
LIPZ Decoded METAR 2019/10/23 02:20 UTC NOAA

Venezia / Tessera, Italy (LIPZ) 45-30N 012-20E 6M
Oct 22, 2019 - 10:20 PM EDT / 2019.10.23 0220 UTC
Wind: from the N (350 degrees) at 2 MPH (2 KT):0
Visibility: less than 1 mile:0
Weather: fog
Temperature: 57 F (14 C)
Dew Point: 57 F (14 C)
Relative Humidity: 100%
Pressure (altimeter): 30.12 in. Hg (1020 hPa)
ob: LIPZ 230220Z 35002KT 0700 R04R/P1500N FG NSC 14/14 Q1020 BECMG 0200 FG
cycle: 2

Station Type Date Time Source
LIPZ TAF 2019/10/22 18:21 UTC NOAA

TAF LIPZ 221700Z 2218/2324 VRB05KT 6000 NSC
BECMG 2218/2220 3000 BR
BECMG 2300/2302 0100 FG OVC001
BECMG 2308/2310 4000 BR
BECMG 2312/2314 6000
BECMG 2320/2322 4000 BR

Example: see airport list